Tiempo atmosférico en la estación meteorológica de Molina De Aragón, Guadalajara (1056 m.)



Fecha
DESCASC
Temp. máxima en grados centígrados (hora)
DESCASC
Temp. mínima en grados centígrados (hora)
DESCASC
Temp. media en grados centígrados
DESCASC
Racha de viento máxima en m/sg (hora)
DESCASC
Velocidad máxima media en intervalos de 10 minutos(hora)
DESCASC
Precipitaciones diarias en mm
DESCASC
Precipitaciones de 00:00 a 06:00 en mm
DESCASC
Precipitaciones de 06:00 a 12:00 en mm
DESCASC
Precipitaciones de 12:00 a 18:00 en mm
DESCASC
Precipitaciones de 18:00 a 24:00 en mm
DESCASC
15-11-2018 15.5 (14:10) 2.5 (05:50) 9 6.67 (15:40) 3.33 (14:30) 0 0 0 0 0
14-11-2018 17.6 (14:10) 2.9 (01:20) 10.3 8.06 (16:50) 3.89 (17:00) 0 0 0 0 0
13-11-2018 15.8 (15:40) 1.8 (08:30) 8.8 6.94 (14:20) 3.89 (12:10) 0 0 0 0 0
12-11-2018 18 (15:00) 3.8 (01:20) 10.9 7.22 (16:10) 4.17 (16:20) 0 0 0 0 0
11-11-2018 15.7 (15:50) 4.2 (00:00) 9.9 8.06 (11:00) 3.89 (00:10) 0 0 0 0 0
10-11-2018 12.6 (14:30) 6.4 (00:00) 9.5 12.22 (13:30) 5.28 (03:40) 0 0 0 0 0
09-11-2018 8.8 (14:50) 2.1 (00:00) 5.5 8.89 (07:30) 4.44 (15:20) 2.4 2.4 0 0 0
08-11-2018 12 (13:30) 4 (00:00) 8 11.11 (13:40) 4.72 (20:10) 6.6 0 0 0 6.6
07-11-2018 11.4 (15:10) 6.4 (00:00) 8.9 10.83 (00:30) 5.83 (00:10) 0.4 0 0 0.4 0
06-11-2018 8 (14:10) 3.3 (00:00) 5.6 10 (05:30) 5.28 (23:59) 6 5 1 0 0
05-11-2018 9.3 (00:20) 4.1 (00:00) 6.7 9.17 (07:50) 4.44 (04:10) 4.2 0 3.2 0.2 0.8
04-11-2018 15.7 (13:50) -3.8 (-00:0) 5.9 6.67 (15:10) 3.61 (15:10) 0 0 0 0 0
03-11-2018 13 (16:40) -1.8 (-00:0) 5.6 4.44 (14:00) 2.5 (00:10) 0 0 0 0 0
02-11-2018 12.6 (16:20) 4.2 (00:00) 8.4 9.17 (15:40) 5 (16:30) 2 0.8 1.2 0 0
01-11-2018 11.7 (13:40) 2.3 (00:00) 7 5.28 (12:30) 2.22 (12:30) 0.8 0.8 0 0 0
31-10-2018 5.4 (00:10) 1.9 (00:00) 3.7 4.72 (13:40) 2.22 (10:20) 9 1 0.8 5.2 2
30-10-2018 9.1 (14:40) 1.6 (00:00) 5.4 8.89 (06:40) 4.72 (14:20) 0.4 0 0 0 0.4
29-10-2018 6.6 (16:30) -1.8 (-00:0) 2.4 13.89 (16:30) 5.83 (13:20) 0.8 0 0.8 0 0
28-10-2018 4.6 (12:00) -1.8 (-00:0) 1.4 10 (12:20) 5.28 (12:30) 0 0 0 0 0
27-10-2018 11.1 (00:00) 1.6 (00:00) 6.4 7.78 (13:10) 3.61 (08:20) 5.6 2.8 1.4 1.2 0.2
26-10-2018 18.8 (15:10) 2.1 (00:00) 10.4 6.39 (16:10) 3.61 (16:10) 0.2 0 0 0 0.2
25-10-2018 22.6 (17:30) 0.7 (00:00) 11.7 5.28 (13:50) 2.5 (13:50) 0 0 0 0 0
24-10-2018 22.3 (17:40) 0.3 (00:00) 11.3 3.89 (15:40) 1.94 (15:40) 0 0 0 0 0
23-10-2018 20.2 (17:30) 2.4 (00:00) 11.3 5 (17:30) 1.94 (17:30) 0 0 0 0 0
22-10-2018 19.6 (15:10) 6.6 (00:00) 13.1 5.83 (15:40) 2.5 (13:40) 0 0 0 0 0
21-10-2018 21.5 (17:40) 9.2 (00:00) 15.3 5 (11:40) 2.5 (12:00) 0 0 0 0 0
20-10-2018 17.4 (17:10) 9.1 (00:00) 13.3 8.06 (11:30) 3.89 (16:40) 0.2 0.2 0 0 0
19-10-2018 13.5 (15:20) 10.3 (00:00) 11.9 8.61 (00:50) 2.78 (15:40) 49.4 18.8 4.8 13.6 12.2
18-10-2018 14.3 (13:30) 6.4 (00:00) 10.4 8.06 (23:40) 2.78 (22:40) 9.6 0.8 0 0 8.8

Gráficas

Temp. máximas Temp. mínimas Temp. medias Precipitaciones Rachas de viento máximas Velocidades máximas media en intervalos de 10 minutos

Datos horarios

Fecha y hora oficial Temperatura (ºC) Velocidad del viento (km/h) Dirección del viento Racha (km/h) Dirección de racha Precipitación (mm) Presión (hPa) Tendencia (hPa) Humedad (%)
2018-11-16 23:00:00 5 0 Calma 4 Oeste 0 898.4 0 95
2018-11-16 22:00:00 5.7 0 Calma 3 Nordeste 0 898.5 0.3 92
2018-11-16 21:00:00 7.1 0 Calma 4 Sudoeste 0 898.3 0.3 91
2018-11-16 20:00:00 8.2 0 Calma 5 Este 0 898.4 0.5 92
2018-11-16 19:00:00 8.8 2 Este 4 Este 0 898.2 0.5 86
2018-11-16 18:00:00 10.8 2 Noroeste 12 Oeste 0 898 0.1 82
2018-11-16 17:00:00 12.5 5 Oeste 17 Este 0 897.9 -0.5 74
2018-11-16 16:00:00 14.1 9 Este 19 Este 0 897.7 -1 65
2018-11-16 15:00:00 14.8 6 Nordeste 18 Este 0 897.9 -1.3 65
2018-11-16 14:00:00 13.6 3 Noroeste 10 Noroeste 0 898.4 -1.2 76
2018-11-16 13:00:00 14.4 5 Sudoeste 10 Oeste 0 898.7 -1.2 70
2018-11-16 12:00:00 14.3 6 Sudeste 15 Sudeste 0 899.2 -0.3 70
2018-11-16 11:00:00 10.6 3 Sudoeste 10 Este 0 899.6 0.3 90
2018-11-16 10:00:00 8.9 3 Este 5 Sudoeste 0 899.9 0.9 94
2018-11-16 09:00:00 6.8 2 Sudoeste 4 Sudoeste 0 899.5 0.7 98
2018-11-16 08:00:00 6 0 Calma 3 Noroeste 0 899.3 0.4 96
2018-11-16 07:00:00 6.6 0 Calma 4 Este 0 899 -0.1 94
2018-11-16 06:00:00 7.9 0 Calma 3 Sur 0 898.8 -0.7 95
2018-11-16 05:00:00 8.2 0 Calma 3 Oeste 0 898.9 -0.8 96
2018-11-16 04:00:00 8.2 0 Calma 4 Sur 0 899.1 -0.9 96
2018-11-16 03:00:00 8.3 0 Calma 4 Sur 0 899.5 -0.4 96
2018-11-16 02:00:00 8.5 0 Calma 5 Este 0 899.7 0.2 95
2018-11-16 01:00:00 8.4 3 Sudeste 6 Sudeste 0 900 0.4 96
2018-11-16 00:00:00 8 2 Este 9 Norte 0 899.9 0.8 94
2018-11-15 23:00:00 8.4 4 Norte 9 Norte 0 899.5 0.7 95
2018-11-15 22:00:00 7.8 0 Calma 5 Sudoeste 0 899.6 1.1 95
2018-11-15 21:00:00 7.6 3 Nordeste 5 Norte 0 899.1 1.2 94
2018-11-15 20:00:00 8.1 0 Calma 10 Este 0 898.8 1 91
2018-11-15 19:00:00 9.7 0 Calma 8 Nordeste 0 898.5 0.9 87
2018-11-15 18:00:00 11.8 3 Norte 15 Norte 0 897.9 0.3 80
2018-11-15 17:00:00 13.8 4 Nordeste 16 Este 0 897.8 -0.2 72
2018-11-15 16:00:00 13.7 6 Este 24 Este 0 897.6 -0.7 70
2018-11-15 15:00:00 14.5 9 Este 21 Este 0 897.6 -1.3 64
2018-11-15 14:00:00 15.1 10 Este 20 Este 0 898 -1.1 60
2018-11-15 13:00:00 13.4 9 Este 18 Nordeste 0 898.3 -0.6 71
2018-11-15 12:00:00 13 10 Este 17 Sudeste 0 898.9 0 74
2018-11-15 11:00:00 11.2 5 Nordeste 15 Este 0 899.1 0.5 88
2018-11-15 10:00:00 6.9 3 Sudoeste 6 Sudoeste 0 898.9 0.6 99
2018-11-15 09:00:00 5 2 Sudoeste 6 Sur 0 898.9 0.8 99
2018-11-15 08:00:00 4.2 0 Calma 4 Sudeste 0 898.6 0.5 100
2018-11-15 07:00:00 3 2 Este 4 Sur 0 898.3 0.2 99
2018-11-15 06:00:00 2.5 2 Nordeste 3 Norte 0 898.1 -0.4 97
2018-11-15 05:00:00 3 0 Calma 4 Sur 0 898.1 -0.8 97
2018-11-15 04:00:00 3.5 0 Calma 4 Oeste 0 898.1 -1.2 96
2018-11-15 03:00:00 3.9 3 Este 6 Este 0 898.5 -1.1 96
2018-11-15 02:00:00 4.2 0 Calma 4 Este 0 898.9 -1.1 95
2018-11-15 01:00:00 4.7 0 Calma 4 Sudoeste 0 899.3 -0.8 93
2018-11-15 00:00:00 5.8 0 Calma 5 Sudoeste 0 899.6 -0.4 92
2018-11-14 23:00:00 7.1 0 Calma 4 Sudeste 0 900 -0.2 91
2018-11-14 22:00:00 8 2 Sudoeste 4 Sudeste 0 900.1 0 89
2018-11-14 21:00:00 8.9 2 Este 8 Nordeste 0 900 0.2 86
2018-11-14 20:00:00 9.9 3 Sudeste 9 Este 0 900.2 0.6 80
2018-11-14 19:00:00 11.3 4 Este 9 Este 0 900.1 0.5 74
2018-11-14 18:00:00 13 4 Sudeste 19 Este 0 899.8 -0.1 68
2018-11-14 17:00:00 14.7 14 Este 29 Este 0 899.6 -0.9 64
2018-11-14 16:00:00 15.8 7 Norte 20 Norte 0 899.6 -1.8 66
2018-11-14 15:00:00 17.5 5 Norte 14 Este 0 899.9 -2.5 58
2018-11-14 14:00:00 17.3 5 Este 13 Este 0 900.5 -2.7 56
2018-11-14 13:00:00 14.5 4 Sudoeste 6 Oeste 0 901.4 -2.1 69
2018-11-14 12:00:00 10.3 2 Sudoeste 6 Sudeste 0 902.4 -1.1 85
2018-11-14 11:00:00 6.8 4 Sudeste 7 Este 0 903.2 -0.1 94
2018-11-14 10:00:00 4.9 3 Sudeste 7 Oeste 0 903.5 0.2 100
2018-11-14 09:00:00 3.5 3 Oeste 8 Oeste 0 903.5 -0.1 99
2018-11-14 08:00:00 3.4 3 Norte 5 Norte 0 903.3 -0.2 99
2018-11-14 07:00:00 3.5 2 Este 5 Este 0 903.3 -0.6 99
2018-11-14 06:00:00 3.6 3 Este 5 Este 0 903.6 -0.5 99
2018-11-14 05:00:00 3.5 0 Calma 6 Nordeste 0 903.5 -0.7 99
2018-11-14 04:00:00 3.8 0 Calma 4 Sudeste 0 903.9 -0.6 99
2018-11-14 03:00:00 3.8 0 Calma 3 Nordeste 0 904.1 -0.6 99
2018-11-14 02:00:00 3.2 0 Calma 3 Sur 0 904.2 -0.5 98
2018-11-14 01:00:00 3.1 0 Calma 3 Sudeste 0 904.5 -0.2 96
2018-11-14 00:00:00 3.7 0 Calma 3 Sur 0 904.7 0.2 95
2018-11-13 23:00:00 4.3 0 Calma 3 Sudoeste 0 904.7 0.2 94
2018-11-13 22:00:00 5.2 0 Calma 3 Norte 0 904.7 0.4 93
2018-11-13 21:00:00 6.4 2 Este 6 Sudeste 0 904.5 0.8 92
2018-11-13 20:00:00 7.9 0 Calma 9 Este 0 904.5 1.1 89
2018-11-13 19:00:00 9.6 5 Este 9 Este 0 904.3 1 89
2018-11-13 18:00:00 11.6 0 Calma 15 Este 0 903.7 0.6 79
2018-11-13 17:00:00 14.1 3 Nordeste 20 Nordeste 0 903.4 0.3 71
2018-11-13 16:00:00 15.5 9 Norte 24 Nordeste 0 903.3 -0.1 67
2018-11-13 15:00:00 15.6 9 Norte 25 Norte 0 903.1 -0.7 66
2018-11-13 14:00:00 14 9 Norte 24 Norte 0 903.1 -1.1 73
2018-11-13 13:00:00 14.4 7 Norte 23 Norte 0 903.4 -0.4 74
2018-11-13 12:00:00 12.7 10 Norte 23 Nordeste 0 903.8 0.3 80
2018-11-13 11:00:00 10 10 Norte 17 Norte 0 904.2 1.5 91
2018-11-13 10:00:00 7.5 4 Nordeste 12 Este 0 903.8 1.5 100
2018-11-13 09:00:00 2.3 0 Calma 3 Sur 0 903.5 1.6 97
2018-11-13 08:00:00 1.9 2 Este 4 Sur 0 902.7 1.1 95
2018-11-13 07:00:00 3 5 Este 10 Este 0 902.3 0.6 97
2018-11-13 06:00:00 2.8 0 Calma 2 Sudeste 0 901.9 0.4 95
2018-11-13 05:00:00 3.2 3 Este 6 Este 0 901.6 0.3 96
2018-11-13 04:00:00 3.5 0 Calma 3 Este 0 901.7 0.8 95
2018-11-13 03:00:00 3.8 0 Calma 5 Este 0 901.5 1.2 95
2018-11-13 02:00:00 3.9 0 Calma 4 Este 0 901.3 1.2 94
2018-11-13 01:00:00 4.4 0 Calma 4 Sudeste 0 900.9 1.5 91
2018-11-13 00:00:00 5.5 0 Calma 5 Este 0 900.3 1.6 91
2018-11-12 23:00:00 6.7 3 Este 4 Sudeste 0 900.1 2.1 89
2018-11-12 22:00:00 7.3 0 Calma 5 Sudeste 0 899.4 1.9 86
2018-11-12 21:00:00 8.4 3 Este 8 Este 0 898.7 1.7 80
2018-11-12 20:00:00 9.6 3 Este 9 Este 0 898 1.8 76
2018-11-12 19:00:00 11.3 0 Calma 9 Sur 0 897.5 1.6 70
2018-11-12 18:00:00 13.3 6 Sur 14 Sur 0 897 1.3 59
2018-11-12 17:00:00 15 12 Sur 26 Sur 0 896.2 0.6 49
2018-11-12 16:00:00 16.6 13 Sudoeste 24 Sudoeste 0 895.9 0 46
2018-11-12 15:00:00 17.9 11 Sudoeste 22 Sudoeste 0 895.7 -0.8 45
2018-11-12 14:00:00 17.3 8 Sudoeste 19 Sudoeste 0 895.6 -0.8 46
2018-11-12 13:00:00 16.8 10 Oeste 21 Oeste 0 895.9 0 48
2018-11-12 12:00:00 15 5 Oeste 12 Noroeste 0 896.5 1 63
2018-11-12 11:00:00 11.7 3 Oeste 6 Sudoeste 0 896.4 1.2 79
2018-11-12 10:00:00 8.3 0 Calma 7 Oeste 0 895.9 1.3 97
2018-11-12 09:00:00 4.8 2 Este 5 Sudoeste 0 895.5 1.4 99
2018-11-12 08:00:00 3.9 0 Calma 5 Nordeste 0 895.2 1.9 97
2018-11-12 07:00:00 5 4 Este 10 Este 0 894.6 1.2 97
2018-11-12 06:00:00 5.4 3 Este 6 Este 0 894.1 0.6 99
2018-11-12 05:00:00 5.4 3 Norte 9 Sudeste 0 893.3 0.1 98
2018-11-12 04:00:00 4.9 2 Noroeste 5 Nordeste 0 893.4 0.6 97
2018-11-12 03:00:00 5 2 Este 5 Este 0 893.5 0.8 97
2018-11-12 02:00:00 4.3 0 Calma 5 Este 0 893.2 0.5 97
2018-11-12 01:00:00 4.1 2 Sudeste 7 Sudoeste 0 892.8 0.3 96
2018-11-12 00:00:00 4.2 3 Sudoeste 8 Este 0 892.7 -0.2 95
2018-11-11 23:00:00 4.7 0 Calma 6 Norte 0 892.7 -0.2 94
2018-11-11 22:00:00 5.6 0 Calma 5 Sudoeste 0 892.5 -0.9 93
2018-11-11 21:00:00 6.7 3 Sur 10 Nordeste 0 892.9 0.1 93
2018-11-11 20:00:00 8.2 3 Este 7 Noroeste 0 892.9 0 88
2018-11-11 19:00:00 10.1 5 Noroeste 11 Norte 0 893.4 0.3 84
2018-11-11 18:00:00 12.5 3 Noroeste 13 Oeste 0 892.8 -1 73
2018-11-11 17:00:00 14.9 8 Sudoeste 18 Sur 0 892.9 -1.4 65
2018-11-11 16:00:00 15.5 12 Sur 24 Sudoeste 0 893.1 -2.3 62
2018-11-11 15:00:00 14 10 Sur 20 Sur 0 893.8 -2.1 70
2018-11-11 14:00:00 13 6 Sudoeste 18 Sudoeste 0 894.3 -1.8 76
2018-11-11 13:00:00 12.5 12 Sur 21 Sudoeste 0 895.4 -0.2 76
2018-11-11 12:00:00 11.9 8 Sudoeste 26 Sudoeste 0 895.9 0.8 78
2018-11-11 11:00:00 11.6 14 Sudoeste 29 Oeste 0 896.1 1.7 78
2018-11-11 10:00:00 11.5 12 Sudoeste 23 Oeste 0 895.6 1.5 81
2018-11-11 09:00:00 11 7 Sudoeste 18 Sudoeste 0 895.1 1.1 86
2018-11-11 08:00:00 10.6 8 Sudoeste 21 Oeste 0 894.4 0.6 88
2018-11-11 07:00:00 10.8 10 Sudoeste 27 Sudoeste 0 894.1 0.2 87
2018-11-11 06:00:00 10.5 3 Sudoeste 15 Sur 0 894 -0.3 88
2018-11-11 05:00:00 10.6 8 Sudoeste 16 Oeste 0 893.8 -0.6 88
2018-11-11 04:00:00 10.5 6 Sudoeste 18 Sudoeste 0 893.9 -0.8 87
2018-11-11 03:00:00 10.4 8 Sudoeste 24 Oeste 0 894.3 -0.3 89
2018-11-11 02:00:00 10.5 10 Oeste 24 Oeste 0 894.4 0 87
2018-11-11 01:00:00 10.4 12 Sudoeste 25 Sudoeste 0 894.7 0.4 88
2018-11-11 00:00:00 10.4 13 Oeste 27 Sudoeste 0 894.6 1 88
2018-11-10 23:00:00 10.4 14 Oeste 30 Sudoeste 0 894.4 0.8 86
2018-11-10 22:00:00 10.6 15 Sudoeste 31 Oeste 0 894.3 1 86
2018-11-10 21:00:00 10.4 12 Sudoeste 29 Oeste 0 893.6 0.7 86
2018-11-10 20:00:00 10.5 11 Sudoeste 23 Sudoeste 0 893.6 0.9 84
2018-11-10 19:00:00 10.6 9 Sudoeste 25 Sudoeste 0 893.3 0.7 84
2018-11-10 18:00:00 10.6 10 Sudoeste 29 Sudoeste 0 892.9 0.4 83
2018-11-10 17:00:00 10.7 13 Sudoeste 33 Sur 0 892.7 -0.2 82
2018-11-10 16:00:00 11.4 10 Sudoeste 31 Sudoeste 0 892.6 -0.6 79
2018-11-10 15:00:00 11.9 11 Sudoeste 36 Oeste 0 892.5 -1.7 78
2018-11-10 14:00:00 11.5 15 Sudoeste 44 Oeste 0 892.9 -1.4 79
2018-11-10 13:00:00 11.4 16 Sudoeste 37 Oeste 0 893.2 -1.2 78
2018-11-10 12:00:00 10.4 13 Sudoeste 36 Sudoeste 0 894.2 -0.3 82
2018-11-10 11:00:00 9.6 12 Sudoeste 29 Oeste 0 894.3 -0.2 84
2018-11-10 10:00:00 9 11 Oeste 32 Sudoeste 0 894.4 0.3 85
2018-11-10 09:00:00 8.2 8 Sudoeste 26 Sudoeste 0 894.5 0.3 87
2018-11-10 08:00:00 7.9 9 Sudoeste 24 Oeste 0 894.5 -0.2 87
2018-11-10 07:00:00 7.9 13 Sudoeste 27 Sudoeste 0 894.1 -1.3 87
2018-11-10 06:00:00 7.6 14 Oeste 28 Oeste 0 894.2 -1.2 88
2018-11-10 05:00:00 7.2 12 Sudoeste 24 Oeste 0 894.7 -1.4 89
2018-11-10 04:00:00 7.1 13 Sudoeste 35 Oeste 0 895.4 -0.9 89
2018-11-10 03:00:00 6.8 12 Sudoeste 30 Sudoeste 0 895.4 -1.3 91
2018-11-10 02:00:00 6.5 9 Oeste 24 Oeste 0 896.1 -0.9 91
2018-11-10 01:00:00 6.5 10 Oeste 26 Sudoeste 0 896.3 -0.5 85
2018-11-10 00:00:00 6.5 9 Sudoeste 21 Sudoeste 0 896.7 0 82
2018-11-09 23:00:00 6.5 9 Sudoeste 18 Sudoeste 0 897 0.1 79
2018-11-09 22:00:00 6.3 5 Sudoeste 16 Oeste 0 896.8 0 79
2018-11-09 21:00:00 6.2 7 Oeste 13 Oeste 0 896.7 0.2 78
2018-11-09 20:00:00 6.1 5 Oeste 14 Oeste 0 896.9 0.9 75
2018-11-09 19:00:00 6.1 7 Oeste 16 Oeste 0 896.8 0.9 74
2018-11-09 18:00:00 6.7 10 Sudoeste 26 Oeste 0 896.5 0.1 70
2018-11-09 17:00:00 8.4 14 Oeste 29 Oeste 0 896 -0.5 64
2018-11-09 16:00:00 8.6 15 Oeste 30 Oeste 0 895.9 -0.8 66
2018-11-09 15:00:00 8.4 13 Oeste 30 Oeste 0 896.4 -0.7 68
2018-11-09 14:00:00 7.3 15 Oeste 27 Sudoeste 0 896.5 -0.6 71
2018-11-09 13:00:00 6.6 14 Oeste 30 Oeste 0 896.7 0 73
2018-11-09 12:00:00 6.4 14 Oeste 31 Oeste 0 897.1 0.9 74
2018-11-09 11:00:00 5.5 9 Oeste 31 Oeste 0 897.1 1.6 79
2018-11-09 10:00:00 4.7 9 Noroeste 26 Oeste 0 896.7 1.6 82
2018-11-09 09:00:00 3.8 9 Oeste 23 Oeste 0 896.2 1.5 87
2018-11-09 08:00:00 3.1 4 Oeste 32 Oeste 0 895.5 1.5 91
2018-11-09 07:00:00 2.4 9 Oeste 17 Oeste 0 895.1 1.5 91
2018-11-09 06:00:00 3.1 4 Oeste 17 Oeste 0 894.7 1 85
2018-11-09 05:00:00 4.3 8 Oeste 15 Oeste 0 894 0.9 85
2018-11-09 04:00:00 4.6 7 Oeste 22 Oeste 1.2 893.6 0.7 91
2018-11-09 03:00:00 5.3 8 Oeste 15 Noroeste 1.2 893.7 0.5 91
2018-11-09 02:00:00 6.3 7 Oeste 14 Oeste 0 893.1 0.3 89
2018-11-09 01:00:00 6.9 9 Oeste 17 Sudoeste 0 892.9 0 90
2018-11-09 00:00:00 7.3 7 Oeste 20 Sudoeste 0.2 893.2 -0.1 90
2018-11-08 23:00:00 7.2 3 Sudeste 8 Oeste 0.8 892.8 0 94
2018-11-08 22:00:00 7.4 0 Calma 12 Sur 1.2 892.9 0.5 93
2018-11-08 21:00:00 8 4 Sudoeste 34 Sudoeste 4.4 893.3 0.5 88
2018-11-08 20:00:00 9.9 14 Sur 32 Sur 0 892.8 -0.4 78
2018-11-08 19:00:00 9.7 4 Este 8 Sur 0 892.4 -1.6 77
2018-11-08 18:00:00 10.4 3 Sur 15 Sudoeste 0 892.8 -1.2 72
2018-11-08 17:00:00 11.2 6 Sur 24 Sudoeste 0 893.2 -1.4 68
2018-11-08 16:00:00 11.8 10 Sudoeste 31 Sudoeste 0 894 -1.7 65
2018-11-08 15:00:00 11.9 13 Sudoeste 33 Sudoeste 0 894 -3 63
2018-11-08 14:00:00 11.9 12 Sudoeste 40 Sur 0 894.6 -2.8 63
2018-11-08 13:00:00 11.5 13 Sudoeste 30 Sur 0 895.7 -2 64
2018-11-08 12:00:00 9.9 12 Sudoeste 27 Sur 0 897 -0.3 68
2018-11-08 11:00:00 8.5 7 Oeste 15 Oeste 0 897.4 0.2 82
2018-11-08 10:00:00 7.4 4 Sudeste 10 Sudeste 0 897.7 0.6 86
2018-11-08 09:00:00 5.9 2 Este 6 Este 0 897.3 0.1 94
2018-11-08 08:00:00 4.9 2 Noroeste 8 Este 0 897.2 -0.4 95
2018-11-08 07:00:00 4.7 0 Calma 4 Sur 0 897.1 -0.6 96
2018-11-08 06:00:00 4.7 0 Calma 7 Este 0 897.2 -0.5 95
2018-11-08 05:00:00 4.1 0 Calma 5 Este 0 897.6 -0.2 96
2018-11-08 04:00:00 4.5 0 Calma 8 Este 0 897.7 -0.1 93
2018-11-08 03:00:00 5 0 Calma 7 Este 0 897.7 -0.3 92
2018-11-08 02:00:00 5.9 4 Este 7 Este 0 897.8 -0.4 94
2018-11-08 01:00:00 6.2 2 Sur 5 Este 0 897.8 -0.3 94
2018-11-08 00:00:00 6.6 0 Calma 3 Sudeste 0 898 0.6 93
2018-11-07 23:00:00 7 0 Calma 5 Sudeste 0 898.2 1.2 94
2018-11-07 22:00:00 7.4 2 Este 5 Este 0 898.1 1.8 93
2018-11-07 21:00:00 7.5 0 Calma 5 Sudeste 0 897.4 1.6 92
2018-11-07 20:00:00 7.7 2 Este 5 Nordeste 0 897 1.8 90
2018-11-07 19:00:00 7.8 0 Calma 8 Oeste 0 896.3 1.5 89
2018-11-07 18:00:00 8.5 2 Noroeste 14 Oeste 0 895.8 1.5 83
2018-11-07 17:00:00 9.7 6 Oeste 28 Oeste 0.4 895.2 1.4 82
2018-11-07 16:00:00 10 8 Noroeste 28 Oeste 0 894.8 1.3 78
2018-11-07 15:00:00 11.1 15 Oeste 35 Oeste 0 894.3 1 70
2018-11-07 14:00:00 10.1 15 Oeste 32 Sudoeste 0 893.8 0.8 80
2018-11-07 13:00:00 10.2 17 Sudoeste 39 Sudoeste 0 893.5 0.7 79
2018-11-07 12:00:00 10.9 15 Sudoeste 38 Sudoeste 0 893.3 1.2 74
2018-11-07 11:00:00 9 13 Sudoeste 32 Sudoeste 0 893 1.3 82
2018-11-07 10:00:00 7.8 13 Sudoeste 36 Oeste 0 892.8 1.3 85
2018-11-07 09:00:00 7.3 10 Sudoeste 33 Sudoeste 0 892.1 1 85
2018-11-07 08:00:00 7.2 10 Sudoeste 26 Sur 0 891.7 0.6 85
2018-11-07 07:00:00 6.9 6 Sudoeste 24 Sudoeste 0 891.5 0.2 86
2018-11-07 06:00:00 6.9 9 Sudoeste 22 Sur 0 891.1 -0.4 85
2018-11-07 05:00:00 6.7 8 Sudoeste 24 Oeste 0 891.1 -0.7 85
2018-11-07 04:00:00 6.7 8 Sudoeste 25 Oeste 0 891.3 -1.5 84
2018-11-07 03:00:00 6.7 6 Sudoeste 25 Sudoeste 0 891.5 -0.7 83
2018-11-07 02:00:00 6.5 9 Sudoeste 22 Sudoeste 0 891.8 -1.4 87
2018-11-07 01:00:00 6.6 10 Sudoeste 39 Sudoeste 0 892.8 -0.1 87
2018-11-07 00:00:00 6.5 19 Sudoeste 32 Sudoeste 0 892.2 -0.8 86
2018-11-06 23:00:00 6.4 12 Sudoeste 28 Sudoeste 0 893.2 0.4 86
2018-11-06 22:00:00 6.5 7 Sudoeste 21 Sudoeste 0 892.9 0.2 85
2018-11-06 21:00:00 6.5 9 Sudoeste 25 Oeste 0 893 0.4 88
2018-11-06 20:00:00 6.6 9 Oeste 27 Oeste 0 892.8 1 84
2018-11-06 19:00:00 6.6 7 Sudoeste 24 Oeste 0 892.7 1.1 78
2018-11-06 18:00:00 6.9 11 Oeste 31 Oeste 0 892.6 1.1 75
2018-11-06 17:00:00 7.2 12 Sudoeste 31 Sudoeste 0 891.8 0.4 76
2018-11-06 16:00:00 7.3 12 Sudoeste 28 Sudoeste 0 891.6 0 75
2018-11-06 15:00:00 7.5 12 Sudoeste 31 Sur 0 891.5 -0.4 74
2018-11-06 14:00:00 7.7 15 Sudoeste 31 Sudoeste 0 891.4 -0.3 73
2018-11-06 13:00:00 7 12 Sudoeste 33 Oeste 0 891.6 0.1 73
2018-11-06 12:00:00 7.4 13 Sudoeste 30 Sudoeste 0 891.9 0.9 76
2018-11-06 11:00:00 6.1 12 Oeste 28 Oeste 0 891.7 1.9 82
2018-11-06 10:00:00 3.9 9 Oeste 28 Oeste 0.2 891.5 2.6 93
2018-11-06 09:00:00 3.5 15 Oeste 26 Sudoeste 0.4 891 2.8 92
2018-11-06 08:00:00 3.3 11 Oeste 27 Oeste 0 889.8 2.4 91
2018-11-06 07:00:00 3.6 12 Sudoeste 35 Oeste 0.4 888.9 2.1 92
2018-11-06 06:00:00 3.6 15 Oeste 36 Oeste 1 888.2 1.6 92
2018-11-06 05:00:00 4.1 13 Oeste 26 Oeste 1.4 887.4 0.9 93
2018-11-06 04:00:00 4 11 Sudoeste 26 Sudoeste 0.6 886.8 0.4 93
2018-11-06 03:00:00 3.8 13 Sudoeste 28 Oeste 1.2 886.6 0.3 94
2018-11-06 02:00:00 3.8 11 Oeste 24 Oeste 0.8 886.5 0.5 92
2018-11-06 01:00:00 4.3 10 Oeste 23 Oeste 0 886.4 1 89
2018-11-06 00:00:00 4.3 12 Oeste 27 Sudoeste 0.2 886.3 1.4 89
2018-11-05 23:00:00 4.5 10 Oeste 21 Oeste 0 886 1.7 89
2018-11-05 22:00:00 4.3 10 Oeste 25 Oeste 0 885.4 1.6 91
2018-11-05 21:00:00 4.3 11 Oeste 28 Sudoeste 0 884.9 1.7 89
2018-11-05 20:00:00 5 11 Oeste 23 Oeste 0 884.3 1.2 88
2018-11-05 19:00:00 5 6 Sudoeste 22 Sudoeste 0.6 883.8 0.7 89
2018-11-05 18:00:00 6 5 Sur 16 Sudoeste 0 883.2 -0.2 86
2018-11-05 17:00:00 6.5 8 Sudoeste 19 Sudoeste 0.2 883.1 -0.4 82
2018-11-05 16:00:00 6.6 8 Sudoeste 19 Oeste 0 883.1 0 77
2018-11-05 15:00:00 6.3 7 Sudoeste 19 Sudoeste 0 883.4 -0.1 79
2018-11-05 14:00:00 6.3 9 Sudoeste 28 Oeste 0 883.5 -0.6 83
2018-11-05 13:00:00 7.8 10 Sur 22 Sur 0 883.1 -1 79
2018-11-05 12:00:00 8 11 Sur 24 Sur 0 883.5 0.3 82
2018-11-05 11:00:00 6.5 4 Sudoeste 20 Oeste 0.8 884.1 1.2 86
2018-11-05 10:00:00 7.2 8 Sudoeste 23 Sudoeste 2.2 884.1 1.2 88
2018-11-05 09:00:00 8 8 Sur 26 Sur 0.2 883.2 -0.2 86
2018-11-05 08:00:00 8.2 12 Sur 33 Sur 0 882.9 -1.1 79
2018-11-05 07:00:00 8.2 3 Este 12 Sudeste 0 882.9 -1.8 85
2018-11-05 06:00:00 8.2 4 Sudeste 13 Sudeste 0 883.4 -1.9 82
2018-11-05 05:00:00 8.5 8 Sur 30 Sur 0 884 -1.9 79
2018-11-05 04:00:00 9 14 Sur 30 Sur 0 884.7 -1.8 81
2018-11-05 03:00:00 7.9 2 Este 12 Sudoeste 0 885.3 -2 84
2018-11-05 02:00:00 8.3 4 Noroeste 10 Sudoeste 0 885.9 -2.2 84
2018-11-05 01:00:00 8.7 2 Norte 18 Sudoeste 0 886.5 -2.1 82
2018-11-05 00:00:00 8.8 7 Oeste 15 Sudeste 0 887.3 -1.7 84
2018-11-04 23:00:00 7.6 5 Sudoeste 12 Sur 0 888.1 -0.9 88
2018-11-04 22:00:00 7.5 2 Este 8 Sur 0 888.6 -0.5 84
2018-11-04 21:00:00 6.1 0 Calma 5 Sudeste 0 889 -0.2 81
2018-11-04 20:00:00 6.8 0 Calma 4 Sudoeste 0 889 -0.5 74
2018-11-04 19:00:00 8.8 0 Calma 3 Sudoeste 0 889.1 -0.8 65
2018-11-04 18:00:00 11.8 4 Sudoeste 18 Sur 0 889.2 -0.9 50
2018-11-04 17:00:00 14.4 9 Sudoeste 21 Oeste 0 889.5 -1.6 36
2018-11-04 16:00:00 14.9 9 Sudoeste 24 Sudoeste 0 889.9 -2.1 30
2018-11-04 15:00:00 15.4 12 Oeste 21 Sudoeste 0 890.1 -3.1 34
2018-11-04 14:00:00 15.6 9 Oeste 16 Oeste 0 891.1 -3 33
2018-11-04 13:00:00 14.2 8 Oeste 17 Oeste 0 892 -2.8 34
2018-11-04 12:00:00 10.1 2 Sudoeste 6 Sudeste 0 893.2 -1.8 59
2018-11-04 11:00:00 5.7 4 Sudeste 6 Sudeste 0 894.1 -0.9 71
2018-11-04 10:00:00 1.9 2 Sur 5 Sur 0 894.8 -0.2 87
2018-11-04 09:00:00 -2.2 2 Sudeste 4 Sudeste 0 895 -0.4 97
2018-11-04 08:00:00 -3.8 0 Calma 3 Este 0 895 -0.2 94
2018-11-04 07:00:00 -3.5 0 Calma 5 Nordeste 0 895 -0.6 94
2018-11-04 06:00:00 -3.1 2 Este 4 Este 0 895.4 -1 94
2018-11-04 05:00:00 -2.7 0 Calma 3 Este 0 895.2 -1.6 94
2018-11-04 04:00:00 -2.2 0 Calma 6 Sudeste 0 895.6 -1.8 93
2018-11-04 03:00:00 -1.6 0 Calma 5 Este 0 896.4 -1.5 93
2018-11-04 02:00:00 -0.8 0 Calma 5 Este 0 896.8 -1.2 93
2018-11-04 01:00:00 0 0 Calma 5 Este 0 897.4 -0.9 91
2018-11-04 00:00:00 0.6 0 Calma 6 Sudeste 0 897.9 -0.3 90
2018-11-03 23:00:00 0.9 2 Este 4 Sur 0 898 -0.3 89
2018-11-03 22:00:00 2.2 0 Calma 3 Este 0 898.3 0.1 84
2018-11-03 21:00:00 3.2 2 Este 5 Sudeste 0 898.2 0 81
2018-11-03 20:00:00 4.4 3 Este 7 Sudeste 0 898.3 0 75
2018-11-03 19:00:00 6.5 2 Este 7 Este 0 898.2 -0.2 66
2018-11-03 18:00:00 10.3 0 Calma 8 Sur 0 898.2 -0.4 47
2018-11-03 17:00:00 12.5 4 Nordeste 12 Este 0 898.3 -0.5 37
2018-11-03 16:00:00 12.6 4 Nordeste 14 Este 0 898.4 -1 31
2018-11-03 15:00:00 12 4 Sudeste 14 Este 0 898.6 -1.4 37
2018-11-03 14:00:00 12.2 6 Nordeste 16 Este 0 898.8 -1.8 37
2018-11-03 13:00:00 11.3 5 Sur 10 Sudoeste 0 899.4 -1.7 48
2018-11-03 12:00:00 9.4 4 Norte 9 Noroeste 0 900 -1.5 55
2018-11-03 11:00:00 5.9 3 Sur 9 Este 0 900.6 -0.7 71
2018-11-03 10:00:00 1.9 4 Sudeste 7 Sudeste 0 901.1 -0.1 94
2018-11-03 09:00:00 -0.9 0 Calma 4 Sudeste 0 901.5 0.1 97
2018-11-03 08:00:00 -1.8 0 Calma 8 Sudeste 0 901.3 -0.1 95
2018-11-03 07:00:00 -1.2 0 Calma 6 Este 0 901.2 -0.1 94
2018-11-03 06:00:00 -0.4 3 Sur 8 Este 0 901.4 -0.1 94
2018-11-03 05:00:00 0 3 Este 7 Este 0 901.4 -0.5 94
2018-11-03 04:00:00 1 2 Este 12 Nordeste 0 901.3 -1 93
2018-11-03 03:00:00 1.6 3 Este 6 Noroeste 0 901.5 -0.9 93
2018-11-03 02:00:00 2.4 2 Noroeste 5 Noroeste 0 901.9 -0.9 90
2018-11-03 01:00:00 3.9 0 Calma 14 Noroeste 0 902.3 -0.4 84
2018-11-03 00:00:00 4.5 5 Noroeste 14 Noroeste 0 902.4 -0.1 83
2018-11-02 23:00:00 5 5 Norte 11 Norte 0 902.8 0.4 82
2018-11-02 22:00:00 6.2 7 Noroeste 22 Nordeste 0 902.7 0.7 76
2018-11-02 21:00:00 7 7 Noroeste 18 Noroeste 0 902.5 1.2 75
2018-11-02 20:00:00 7.6 8 Norte 23 Norte 0 902.4 1.7 69
2018-11-02 19:00:00 7.9 6 Noroeste 18 Norte 0 902 1.7 71
2018-11-02 18:00:00 9.2 9 Norte 26 Norte 0 901.3 1.5 64
2018-11-02 17:00:00 11.1 8 Norte 32 Noroeste 0 900.7 1 59
2018-11-02 16:00:00 12.2 16 Noroeste 33 Norte 0 900.3 0.8 58
2018-11-02 15:00:00 12.2 14 Norte 31 Noroeste 0 899.8 0.6 66
2018-11-02 14:00:00 12.1 14 Norte 27 Norte 0 899.7 0.7 76
2018-11-02 13:00:00 12 11 Norte 31 Norte 0 899.5 0.7 82
2018-11-02 12:00:00 10.8 10 Noroeste 24 Norte 0 899.2 0.7 86
2018-11-02 11:00:00 8.5 5 Oeste 17 Oeste 0 899 1.5 95
2018-11-02 10:00:00 7.1 8 Oeste 17 Oeste 0.4 898.8 1.7 96
2018-11-02 09:00:00 6.3 5 Noroeste 14 Oeste 0.8 898.5 1.4 96
2018-11-02 08:00:00 6.2 5 Oeste 12 Oeste 0 897.5 0.5 93
2018-11-02 07:00:00 6.1 5 Oeste 13 Noroeste 0 897.1 -0.2 91
2018-11-02 06:00:00 6 6 Oeste 12 Oeste 0 897.1 -0.5 91
2018-11-02 05:00:00 5.7 0 Calma 4 Oeste 0 897 -0.8 96
2018-11-02 04:00:00 5.4 3 Sudeste 6 Sudeste 0.2 897.3 -0.8 96
2018-11-02 03:00:00 5.1 3 Sudeste 5 Sudeste 0.6 897.6 -0.1 95
2018-11-02 02:00:00 4.4 2 Sudeste 5 Sudeste 0 897.8 -0.4 95
2018-11-02 01:00:00 4.3 0 Calma 5 Sudeste 0 898.1 -0.3 93
2018-11-02 00:00:00 4.6 2 Este 5 Este 0 897.7 -0.1 92
2018-11-01 23:00:00 5.1 0 Calma 4 Sudeste 0 898.2 0.7 90
2018-11-01 22:00:00 5.4 0 Calma 5 Este 0 898.4 1.2 89
2018-11-01 21:00:00 5.8 0 Calma 6 Noroeste 0 897.8 1.5 86
2018-11-01 20:00:00 6.5 0 Calma 7 Norte 0 897.5 1.9 83
2018-11-01 19:00:00 7.4 3 Norte 9 Noroeste 0 897.2 1.9 74
2018-11-01 18:00:00 8.7 6 Noroeste 13 Norte 0 896.3 1.6 68
2018-11-01 17:00:00 9.7 6 Noroeste 18 Oeste 0 895.6 0.7 62
2018-11-01 16:00:00 10.2 6 Oeste 16 Norte 0 895.3 0.4 58
2018-11-01 15:00:00 10.8 6 Noroeste 15 Oeste 0 894.7 -0.4 58
2018-11-01 14:00:00 11 8 Noroeste 15 Norte 0 894.9 0.4 58
2018-11-01 13:00:00 10.7 3 Norte 19 Norte 0 894.9 1 61
2018-11-01 12:00:00 8.5 6 Norte 15 Oeste 0 895.1 2 72
2018-11-01 11:00:00 7.5 4 Sudoeste 8 Oeste 0 894.5 2.6 81
2018-11-01 10:00:00 4.4 2 Sudoeste 4 Sur 0 893.9 2.9 95
2018-11-01 09:00:00 3.2 3 Oeste 6 Oeste 0 893.1 3 98
2018-11-01 08:00:00 2.4 3 Noroeste 6 Este 0 891.9 2.8 94
2018-11-01 07:00:00 3.9 3 Noroeste 6 Oeste 0 891 2.5 96
2018-11-01 06:00:00 3.9 3 Oeste 10 Noroeste 0 890.1 2 97
2018-11-01 05:00:00 3.9 4 Noroeste 8 Oeste 0 889.1 1.5 97
2018-11-01 04:00:00 3.6 2 Oeste 9 Noroeste 0 888.5 1.1 97
2018-11-01 03:00:00 3.4 3 Noroeste 5 Oeste 0 888.1 1.5 95
2018-11-01 02:00:00 4.1 3 Oeste 10 Noroeste 0.4 887.6 1.2 97
2018-11-01 01:00:00 3.9 2 Noroeste 7 Oeste 0.4 887.4 1.5 97
2018-11-01 00:00:00 3.7 4 Noroeste 9 Noroeste 0.2 886.6 1.2 96
2018-10-31 23:00:00 3.5 3 Oeste 8 Oeste 0 886.4 1.4 96
2018-10-31 22:00:00 3.3 3 Noroeste 10 Oeste 0.2 885.9 1.4 97
2018-10-31 21:00:00 2.7 2 Oeste 8 Oeste 0 885.4 1.6 97
2018-10-31 20:00:00 2.3 6 Oeste 12 Sudoeste 0.6 885 1.8 96
2018-10-31 19:00:00 1.9 5 Oeste 13 Oeste 1 884.5 1.9 95
2018-10-31 18:00:00 2.3 6 Sudoeste 11 Sudoeste 1.6 883.8 1.7 95
2018-10-31 17:00:00 2.4 3 Sudoeste 12 Oeste 2.2 883.2 1.2 93
2018-10-31 16:00:00 3.5 6 Sudoeste 14 Sudoeste 0.8 882.6 0.7 91
2018-10-31 15:00:00 3.8 6 Sudoeste 15 Sudoeste 0.2 882.1 0.3 91
2018-10-31 14:00:00 4 7 Sudoeste 17 Oeste 0 882 0.4 88
2018-10-31 13:00:00 4.1 7 Sudoeste 15 Oeste 0.4 881.9 0.6 90
2018-10-31 12:00:00 4.3 6 Sudoeste 14 Sudoeste 0.2 881.8 0.6 91
2018-10-31 11:00:00 4.7 5 Sudoeste 16 Oeste 0 881.6 0.6 89
2018-10-31 10:00:00 5 7 Sudoeste 14 Oeste 0.4 881.3 0.5 90
2018-10-31 09:00:00 4.7 4 Sudoeste 12 Sudoeste 0 881.2 0.3 95
2018-10-31 08:00:00 4.9 2 Sudoeste 4 Sudoeste 0.2 881 0.3 96
2018-10-31 07:00:00 4.7 0 Calma 3 Sur 0 880.8 -0.2 95
2018-10-31 06:00:00 4.8 0 Calma 3 Sur 0.2 880.9 -0.3 95
2018-10-31 05:00:00 4.8 0 Calma 3 Sur 0.2 880.7 -1.1 94
2018-10-31 04:00:00 4.8 0 Calma 4 Sur 0.2 881 -0.9 93
2018-10-31 03:00:00 4.9 0 Calma 3 Este 0 881.2 -1.2 94
2018-10-31 02:00:00 5.1 2 Sudeste 5 Este 0 881.8 -0.8 95
2018-10-31 01:00:00 5.3 3 Sur 8 Sur 0.4 881.9 -0.8 94
2018-10-31 00:00:00 5.3 0 Calma 6 Norte 0.2 882.4 -0.2 92
2018-10-30 23:00:00 5.3 5 Norte 10 Norte 0.2 882.6 0.1 90
2018-10-30 22:00:00 5.3 0 Calma 3 Nordeste 0 882.7 0.2 87
2018-10-30 21:00:00 5.6 0 Calma 9 Este 0 882.6 0.4 82
2018-10-30 20:00:00 5.9 4 Este 14 Este 0 882.5 0.2 81
2018-10-30 19:00:00 6.1 5 Sudeste 10 Sur 0 882.5 0 79
2018-10-30 18:00:00 6.3 6 Sudeste 26 Este 0 882.2 -0.1 78
2018-10-30 17:00:00 6.8 6 Sudeste 22 Sur 0 882.3 -- 79
2018-10-30 16:00:00 6.4 9 Sur 23 Sudeste 0 882.5 -0.5 81
2018-10-30 15:00:00 8.6 12 Sur 28 Sur 0 882.3 -1.4 67
2018-10-30 14:00:00 -- -- -- -- -- -- -- -- --
2018-10-30 13:00:00 7.4 11 Sudoeste 30 Sur 0 883 -0.3 76
2018-10-30 12:00:00 7 11 Sudoeste 28 Oeste 0 883.7 0.3 74
2018-10-30 11:00:00 5.5 10 Sudoeste 23 Oeste 0 883.7 0.6 77
2018-10-30 10:00:00 4.3 8 Sur 19 Sur 0 883.3 0.5 84
2018-10-30 09:00:00 3.3 5 Este 9 Este 0 883.4 0.8 85
2018-10-30 08:00:00 3.1 3 Sudoeste 20 Sur 0 883.1 0.8 84
2018-10-30 07:00:00 3.1 8 Sudoeste 32 Sudoeste 0 882.8 0.5 82
2018-10-30 06:00:00 2.9 12 Sudoeste 27 Oeste 0 882.6 -0.4 82
2018-10-30 05:00:00 1.8 11 Oeste 27 Oeste 0 882.3 -0.5 83
2018-10-30 04:00:00 1.9 12 Oeste 23 Oeste 0 882.3 -0.6 79
2018-10-30 03:00:00 2 7 Oeste 19 Oeste 0 883 0.2 74
2018-10-30 02:00:00 2.5 10 Sudoeste 28 Sudoeste 0 882.8 0.1 73
2018-10-30 01:00:00 2.3 9 Oeste 25 Oeste 0 882.9 0.3 72
2018-10-30 00:00:00 2.2 12 Oeste 23 Oeste 0 882.8 0.7 71
2018-10-29 23:00:00 2.3 12 Oeste 26 Oeste 0 882.7 0.9 70
2018-10-29 22:00:00 2.5 6 Oeste 30 Oeste 0 882.6 0.9 69
2018-10-29 21:00:00 3.1 15 Oeste 30 Oeste 0 882.1 0.7 64
2018-10-29 20:00:00 2.8 12 Oeste 23 Oeste 0 881.8 0.8 62
2018-10-29 19:00:00 3.2 12 Oeste 25 Oeste 0 881.7 0.8 58
2018-10-29 18:00:00 3.9 12 Oeste 35 Oeste 0 881.4 0.6 52
2018-10-29 17:00:00 5.7 17 Oeste 50 Oeste 0 881 0.4 44
2018-10-29 16:00:00 5.3 17 Oeste 46 Oeste 0 880.9 -0.1 46
2018-10-29 15:00:00 4.5 18 Oeste 45 Oeste 0 880.8 -0.4 52
2018-10-29 14:00:00 4 15 Oeste 47 Oeste 0 880.6 -0.6 61
2018-10-29 13:00:00 2.6 16 Oeste 45 Oeste 0 881 0 70
2018-10-29 12:00:00 2 13 Oeste 39 Oeste 0 881.2 0.3 73
2018-10-29 11:00:00 1.5 15 Oeste 34 Oeste 0 881.2 0.7 83
2018-10-29 10:00:00 1.1 12 Oeste 29 Noroeste 0 881 0.4 88
2018-10-29 09:00:00 0.9 10 Oeste 32 Oeste 0.4 880.9 0.1 88
2018-10-29 08:00:00 -0.1 9 Oeste 20 Sudoeste 0 880.5 -0.7 95
2018-10-29 07:00:00 -0.4 11 Oeste 21 Oeste 0.4 880.6 -0.6 94
2018-10-29 06:00:00 -0.3 10 Oeste 20 Oeste 0 880.8 -1 93
2018-10-29 05:00:00 -0.2 9 Oeste 19 Sudoeste 0 881.2 -1 87
2018-10-29 04:00:00 -0.6 10 Oeste 22 Oeste 0 881.2 -1.2 85
2018-10-29 03:00:00 -1.1 10 Oeste 19 Sudoeste 0 881.8 -0.8 86
2018-10-29 02:00:00 -1.2 9 Oeste 18 Oeste 0 882.2 -0.6 87
2018-10-29 01:00:00 -1.4 8 Oeste 16 Oeste 0 882.4 0 89
2018-10-29 00:00:00 -1.8 2 Oeste 9 Oeste 0 882.6 0.2 87
2018-10-28 23:00:00 -1.5 3 Oeste 7 Noroeste 0 882.8 0.4 85
2018-10-28 22:00:00 -0.6 4 Noroeste 12 Oeste 0 882.4 0.2 80
2018-10-28 21:00:00 0.6 4 Oeste 15 Noroeste 0 882.4 0.2 74
2018-10-28 20:00:00 1.3 5 Oeste 16 Oeste 0 882.4 0.8 72
2018-10-28 19:00:00 2.2 6 Noroeste 19 Noroeste 0 882.2 0.9 66
2018-10-28 18:00:00 2.7 8 Noroeste 26 Norte 0 882.2 0.9 65
2018-10-28 17:00:00 3.6 12 Noroeste 30 Noroeste 0 881.6 0.5 58
2018-10-28 16:00:00 4.3 11 Norte 29 Noroeste 0 881.3 -0.1 61
2018-10-28 15:00:00 2.9 8 Norte 36 Norte 0 881.3 0.1 76
2018-10-28 14:00:00 3.8 11 Norte 31 Oeste 0 881.1 0.1 60
2018-10-28 13:00:00 3.9 13 Norte 36 Norte 0 881.4 0.4 68
2018-10-28 12:00:00 4.4 15 Norte 35 Norte 0 881.2 0.3 53
2018-10-28 11:00:00 2.7 9 Noroeste 32 Noroeste 0 881 0.4 62
2018-10-28 10:00:00 2.4 14 Noroeste 28 Norte 0 881 0.8 63
2018-10-28 09:00:00 0.3 4 Noroeste 13 Oeste 0 880.9 0.7 76
2018-10-28 08:00:00 0.3 6 Noroeste 19 Norte 0 880.6 0.6 77
2018-10-28 07:00:00 0.6 7 Noroeste 15 Norte 0 880.2 0.3 77
2018-10-28 06:00:00 0.4 7 Noroeste 24 Oeste 0 880.2 0.5 79
2018-10-28 05:00:00 0.6 6 Noroeste 16 Noroeste 0 880 -0.2 80
2018-10-28 04:00:00 0.5 5 Noroeste 13 Norte 0 879.9 -0.7 84
2018-10-28 03:00:00 0.8 7 Noroeste 19 Noroeste 0 879.7 -1 82
2018-10-28 02:00:00 1 4 Noroeste 16 Noroeste 0 880.2 -1.2 83
2018-10-28 01:00:00 1.1 4 Sur 12 Noroeste 0 880.7 -1.6 87
2018-10-28 00:00:00 1.6 3 Oeste 11 Oeste 0 881.4 -0.9 85
2018-10-27 23:00:00 2.3 4 Oeste 14 Oeste 0 881.8 -1.1 83
2018-10-27 22:00:00 2.9 3 Oeste 15 Noroeste 0 882.3 -0.4 88
2018-10-27 21:00:00 3.4 2 Norte 20 Norte 0.2 882.3 -1.2 86
2018-10-27 20:00:00 4.5 10 Noroeste 19 Noroeste 0 882.9 -0.7 81
2018-10-27 19:00:00 5.2 5 Norte 17 Nordeste 0 882.7 -1.3 73
2018-10-27 18:00:00 5.3 8 Noroeste 14 Oeste 0 883.5 -2 72
2018-10-27 17:00:00 5.5 5 Oeste 21 Noroeste 0 883.6 -3.5 72
2018-10-27 16:00:00 6 8 Norte 17 Norte 0 884 -3.9 71
2018-10-27 15:00:00 4.9 7 Norte 26 Norte 0.8 885.5 -2.8 86
2018-10-27 14:00:00 5.6 8 Norte 28 Noroeste 0.4 887.1 -1.5 85
2018-10-27 13:00:00 6.1 8 Norte 20 Norte 0 887.9 -0.6 80
2018-10-27 12:00:00 6.3 6 Norte 21 Norte 0 888.3 -0.1 84
2018-10-27 11:00:00 6.7 7 Norte 24 Norte 0 888.6 0.3 84
2018-10-27 10:00:00 7.6 2 Este 23 Norte 0 888.5 -0.1 89
2018-10-27 09:00:00 7.4 9 Norte 26 Norte 0 888.4 -0.8 91
2018-10-27 08:00:00 8.8 8 Noroeste 17 Noroeste 0.4 888.3 -1.5 93
2018-10-27 07:00:00 9.2 3 Oeste 7 Sudoeste 1 888.6 -1.9 95
2018-10-27 06:00:00 9.3 3 Oeste 9 Oeste 1.6 889.2 -1.5 94
2018-10-27 05:00:00 9.5 2 Sudoeste 5 Sudoeste 0.4 889.8 -1.7 93
2018-10-27 04:00:00 9.7 3 Noroeste 8 Noroeste 0.2 890.5 -1.5 92
2018-10-27 03:00:00 9.9 2 Norte 7 Oeste 0.4 890.7 -1.7 89
2018-10-27 02:00:00 10.4 3 Oeste 5 Noroeste 0.2 891.5 -1 85
2018-10-27 01:00:00 10.7 0 Calma 7 Oeste 0 892 -0.9 83
2018-10-27 00:00:00 11.1 2 Noroeste 5 Oeste 0 892.4 -0.8 85
2018-10-26 23:00:00 11.4 0 Calma 4 Oeste 0 892.5 -0.4 81
2018-10-26 22:00:00 12 0 Calma 11 Noroeste 0 892.9 -0.2 78
2018-10-26 21:00:00 13 6 Oeste 17 Oeste 0.2 893.2 0 73
2018-10-26 20:00:00 14 2 Sudoeste 8 Noroeste 0 892.9 -0.8 69
2018-10-26 19:00:00 14.9 4 Oeste 13 Oeste 0 893.1 -0.9 64
2018-10-26 18:00:00 15.7 6 Oeste 17 Oeste 0 893.2 -0.8 59
2018-10-26 17:00:00 16.4 9 Oeste 23 Oeste 0 893.7 -1 55
2018-10-26 16:00:00 17.4 9 Oeste 23 Oeste 0 894 -1.5 50
2018-10-26 15:00:00 18.7 11 Oeste 21 Oeste 0 894 -2.1 44
2018-10-26 14:00:00 18 6 Oeste 11 Noroeste 0 894.7 -1.9 50
2018-10-26 13:00:00 15.3 2 Sudoeste 5 Oeste 0 895.5 -1.4 57
2018-10-26 12:00:00 11.8 3 Sudeste 6 Sudeste 0 896.1 -0.5 65
2018-10-26 11:00:00 7.1 2 Sur 5 Sudoeste 0 896.6 0 87
2018-10-26 10:00:00 3.4 0 Calma 5 Este 0 896.9 0 96
2018-10-26 09:00:00 2.3 0 Calma 4 Sur 0 896.6 -0.3 95
2018-10-26 08:00:00 2.3 0 Calma 5 Este 0 896.6 -0.3 96
2018-10-26 07:00:00 2.2 2 Sudeste 4 Este 0 896.9 -0.8 95
2018-10-26 06:00:00 2.4 0 Calma 4 Este 0 896.9 -1.3 93
2018-10-26 05:00:00 3 0 Calma 3 Sudeste 0 896.9 -1.8 92
2018-10-26 04:00:00 3.6 0 Calma 4 Este 0 897.7 -1.1 92
2018-10-26 03:00:00 3.9 0 Calma 4 Sudeste 0 898.2 -0.7 92
2018-10-26 02:00:00 4.4 2 Este 4 Este 0 898.7 -0.2 90
2018-10-26 01:00:00 5.2 0 Calma 4 Sudeste 0 898.8 -0.1 88
2018-10-26 00:00:00 6.1 2 Este 4 Sudeste 0 898.9 0.1 86
2018-10-25 23:00:00 7.2 0 Calma 5 Este 0 898.9 0.3 82
2018-10-25 22:00:00 8.8 0 Calma 5 Sudeste 0 898.9 0.7 77
2018-10-25 21:00:00 11 2 Este 7 Este 0 898.8 0.8 69
2018-10-25 20:00:00 14.3 3 Este 5 Este 0 898.6 0.7 59
2018-10-25 19:00:00 19.2 0 Calma 13 Noroeste 0 898.2 -0.1 41
2018-10-25 18:00:00 21.6 7 Oeste 19 Oeste 0 898 -0.8 33
2018-10-25 17:00:00 22.3 9 Oeste 18 Oeste 0 897.9 -1.7 32
2018-10-25 16:00:00 21.4 8 Oeste 14 Oeste 0 898.3 -1.9 35
2018-10-25 15:00:00 21.8 5 Oeste 14 Noroeste 0 898.8 -2.1 33
2018-10-25 14:00:00 20.6 8 Oeste 19 Sudoeste 0 899.6 -1.7 39
2018-10-25 13:00:00 16.9 2 Oeste 4 Sudoeste 0 900.2 -1.3 51
2018-10-25 12:00:00 11.7 3 Sudoeste 5 Oeste 0 900.9 -0.4 58
2018-10-25 11:00:00 6.9 3 Sudoeste 5 Sur 0 901.3 0.3 73
2018-10-25 10:00:00 3.2 2 Sur 5 Sur 0 901.5 0.3 99
2018-10-25 09:00:00 0.8 3 Sur 4 Este 0 901.3 0.1 96
2018-10-25 08:00:00 1 3 Este 6 Este 0 901 -0.2 96
2018-10-25 07:00:00 1.2 0 Calma 3 Sudoeste 0 901.2 -0.4 95
2018-10-25 06:00:00 1.7 0 Calma 3 Sudeste 0 901.2 -1 94
2018-10-25 05:00:00 2.2 3 Sudeste 5 Sudeste 0 901.2 -1.3 95
2018-10-25 04:00:00 2.7 2 Nordeste 4 Sudeste 0 901.6 -1.1 94
2018-10-25 03:00:00 3.2 2 Este 4 Sudeste 0 902.2 -0.8 92
2018-10-25 02:00:00 4 0 Calma 5 Sudeste 0 902.5 -0.3 92
2018-10-25 01:00:00 4.5 0 Calma 4 Sudeste 0 902.7 0.1 91
2018-10-25 00:00:00 5.3 0 Calma 5 Sudeste 0 903 0.2 88
2018-10-24 23:00:00 6.5 0 Calma 4 Sudeste 0 902.8 0.1 84
2018-10-24 22:00:00 8.3 3 Este 8 Este 0 902.6 0.2 79
2018-10-24 21:00:00 10.5 3 Este 5 Este 0 902.8 0.2 73
2018-10-24 20:00:00 13.9 0 Calma 5 Norte 0 902.7 0.1 59
2018-10-24 19:00:00 18.6 4 Norte 13 Oeste 0 902.4 -0.6 40
2018-10-24 18:00:00 21.2 6 Noroeste 13 Oeste 0 902.6 -0.9 30
2018-10-24 17:00:00 21.4 4 Norte 12 Norte 0 902.6 -1.7 35
2018-10-24 16:00:00 20.5 6 Oeste 14 Oeste 0 903 -1.9 40
2018-10-24 15:00:00 20.3 6 Oeste 13 Oeste 0 903.5 -2 42
2018-10-24 14:00:00 18.8 5 Oeste 9 Noroeste 0 904.3 -1.5 49
2018-10-24 13:00:00 15.5 4 Sudoeste 7 Oeste 0 904.9 -1 63
2018-10-24 12:00:00 10.9 3 Sudeste 6 Sudeste 0 905.5 -0.3 72
2018-10-24 11:00:00 6 0 Calma 5 Sudoeste 0 905.8 0 89
2018-10-24 10:00:00 1.9 3 Sur 5 Sur 0 905.9 0.2 99
2018-10-24 09:00:00 0.4 2 Este 4 Sudeste 0 905.8 0 96
2018-10-24 08:00:00 0.6 2 Este 3 Este 0 905.8 0.1 96
2018-10-24 07:00:00 1.1 0 Calma 3 Sudeste 0 905.7 -0.5 95
2018-10-24 06:00:00 1.8 0 Calma 6 Este 0 905.8 -0.7 95
2018-10-24 05:00:00 2.2 0 Calma 5 Sudeste 0 905.7 -0.8 95
2018-10-24 04:00:00 2.6 0 Calma 3 Este 0 906.2 -0.3 93
2018-10-24 03:00:00 3.3 0 Calma 5 Sudeste 0 906.5 -0.3 93
2018-10-24 02:00:00 4.2 2 Este 4 Este 0 906.5 -0.3 93
2018-10-24 01:00:00 5 0 Calma 4 Sudeste 0 906.5 0.2 91
2018-10-24 00:00:00 6 0 Calma 4 Este 0 906.8 0.7 88
2018-10-23 23:00:00 7.3 2 Este 5 Este 0 906.8 0.9 87
2018-10-23 22:00:00 9 2 Sudeste 7 Este 0 906.3 1.3 81
2018-10-23 21:00:00 10.9 0 Calma 8 Nordeste 0 906.1 1.2 72
2018-10-23 20:00:00 13.6 2 Este 13 Norte 0 905.9 1 63
2018-10-23 19:00:00 17 5 Norte 15 Norte 0 905 0.4 55
2018-10-23 18:00:00 19.3 4 Norte 18 Norte 0 904.9 -0.4 48
2018-10-23 17:00:00 19.6 5 Nordeste 17 Norte 0 904.9 -1 45
2018-10-23 16:00:00 18.3 4 Sur 12 Sur 0 904.6 -1.9 55
2018-10-23 15:00:00 18.3 4 Sudoeste 10 Sudoeste 0 905.3 -1.4 55
2018-10-23 14:00:00 17.2 5 Sudoeste 11 Oeste 0 905.9 -0.9 59
2018-10-23 13:00:00 14.4 4 Sudoeste 9 Sudoeste 0 906.5 0 68
2018-10-23 12:00:00 10.3 3 Este 8 Sudeste 0 906.7 1 79
2018-10-23 11:00:00 6.8 3 Sur 5 Sur 0 906.8 1.5 90
2018-10-23 10:00:00 4.5 2 Sur 4 Sudeste 0 906.5 1.4 98
2018-10-23 09:00:00 2.6 2 Este 5 Sudeste 0 905.7 0.7 97
2018-10-23 08:00:00 2.7 2 Este 5 Sudeste 0 905.3 0.3 96
2018-10-23 07:00:00 2.8 0 Calma 4 Sudeste 0 905.1 0.1 95
2018-10-23 06:00:00 3.3 0 Calma 4 Sudeste 0 905 0.1 94
2018-10-23 05:00:00 4 0 Calma 5 Oeste 0 905 0.1 95
2018-10-23 04:00:00 4.5 2 Oeste 5 Noroeste 0 905 0.1 95
2018-10-23 03:00:00 4.7 0 Calma 3 Este 0 904.9 0 94
2018-10-23 02:00:00 5.3 2 Norte 4 Norte 0 904.9 0.3 93
2018-10-23 01:00:00 5.8 0 Calma 4 Nordeste 0 904.9 0.6 91
2018-10-23 00:00:00 6.8 0 Calma 4 Este 0 904.9 1.3 90
2018-10-22 23:00:00 7.9 4 Este 6 Sudeste 0 904.6 1.5 88
2018-10-22 22:00:00 9.5 3 Sudeste 5 Sur 0 904.3 1.7 83
2018-10-22 21:00:00 11.2 2 Nordeste 10 Este 0 903.6 1.4 78
2018-10-22 20:00:00 13 4 Este 8 Este 0 903.1 1.1 70
2018-10-22 19:00:00 16.2 2 Nordeste 15 Este 0 902.6 0.8 59
2018-10-22 18:00:00 18.3 4 Nordeste 16 Norte 0 902.2 0.3 55
2018-10-22 17:00:00 18.7 7 Norte 19 Norte 0 902 -0.2 53
2018-10-22 16:00:00 18.4 5 Nordeste 21 Norte 0 901.8 -0.6 49
2018-10-22 15:00:00 19.4 6 Norte 17 Norte 0 901.9 -0.7 51
2018-10-22 14:00:00 18.2 6 Este 19 Este 0 902.2 -0.2 57
2018-10-22 13:00:00 16 4 Sudeste 9 Este 0 902.4 0.1 62
2018-10-22 12:00:00 11.2 3 Sudoeste 5 Oeste 0 902.6 0.8 89
2018-10-22 11:00:00 7.7 2 Sudeste 6 Sur 0 902.4 0.9 99
2018-10-22 10:00:00 6.7 0 Calma 6 Sudeste 0 902.3 0.8 99
2018-10-22 09:00:00 6.7 2 Este 8 Este 0 901.8 0.5 98
2018-10-22 08:00:00 7.3 3 Sur 7 Sur 0 901.5 0.1 99
2018-10-22 07:00:00 7.4 0 Calma 5 Este 0 901.5 -0.1 99
2018-10-22 06:00:00 7.3 0 Calma 10 Este 0 901.3 -0.5 99
2018-10-22 05:00:00 7.7 2 Este 7 Sudeste 0 901.4 -0.5 98
2018-10-22 04:00:00 7.9 2 Este 4 Sudeste 0 901.6 -0.1 98
2018-10-22 03:00:00 7.7 0 Calma 3 Sudeste 0 901.8 -0.1 97
2018-10-22 02:00:00 7.4 0 Calma 4 Este 0 901.9 0.1 94
2018-10-22 01:00:00 8.2 0 Calma 4 Este 0 901.7 0.2 93
2018-10-22 00:00:00 9.3 3 Este 5 Este 0 901.9 0.7 93
2018-10-21 23:00:00 10.4 0 Calma 8 Sudeste 0 901.8 0.8 90
2018-10-21 22:00:00 11.7 3 Este 5 Este 0 901.5 1 89
2018-10-21 21:00:00 13.1 2 Sudoeste 9 Norte 0 901.2 0.9 86
2018-10-21 20:00:00 14.5 0 Calma 8 Norte 0 901 0.5 76
2018-10-21 19:00:00 16.9 2 Norte 10 Norte 0 900.5 -0.3 67
2018-10-21 18:00:00 20.3 5 Norte 18 Norte 0 900.3 -0.9 55
2018-10-21 17:00:00 21 5 Norte 17 Este 0 900.5 -1.3 55
2018-10-21 16:00:00 19.7 2 Noroeste 7 Sudeste 0 900.8 -1.6 56
2018-10-21 15:00:00 20.1 4 Sudeste 16 Este 0 901.2 -1.7 54
2018-10-21 14:00:00 19.8 8 Este 16 Nordeste 0 901.8 -1.4 56
2018-10-21 13:00:00 18.5 7 Este 16 Sudeste 0 902.4 -1.2 63
2018-10-21 12:00:00 16.4 9 Este 18 Este 0 902.9 -0.3 72
2018-10-21 11:00:00 12 3 Sudoeste 6 Este 0 903.2 0.4 95
2018-10-21 10:00:00 10.3 2 Nordeste 8 Sudeste 0 903.6 1 98
2018-10-21 09:00:00 9.4 2 Nordeste 6 Nordeste 0 903.2 0.8 97
2018-10-21 08:00:00 10.1 6 Nordeste 16 Norte 0 902.8 0.1 98
2018-10-21 07:00:00 10.3 6 Norte 17 Norte 0 902.6 -0.1 97
2018-10-21 06:00:00 10.7 2 Nordeste 8 Nordeste 0 902.4 -0.3 95
2018-10-21 05:00:00 11.1 3 Nordeste 12 Norte 0 902.7 -0.1 96
2018-10-21 04:00:00 11.3 5 Nordeste 12 Norte 0 902.7 -0.1 96
2018-10-21 03:00:00 11.3 3 Norte 12 Norte 0 902.7 -0.4 96
2018-10-21 02:00:00 11.4 3 Nordeste 10 Norte 0 902.8 -0.2 97
2018-10-21 01:00:00 11.1 5 Norte 12 Norte 0 902.8 0.4 97
2018-10-21 00:00:00 10.4 2 Sur 7 Este 0 903.1 0.7 96
2018-10-20 23:00:00 10.6 3 Sudeste 12 Este 0 903 0.8 95
2018-10-20 22:00:00 10.6 2 Este 6 Nordeste 0 902.4 0.7 93
2018-10-20 21:00:00 11.6 2 Norte 5 Este 0 902.4 1.2 90
2018-10-20 20:00:00 13.4 4 Este 19 Este 0 902.2 1.2 87
2018-10-20 19:00:00 14.6 4 Nordeste 19 Este 0 901.7 0.4 82
2018-10-20 18:00:00 16 4 Nordeste 19 Este 0 901.2 -0.4 76
2018-10-20 17:00:00 17.3 10 Este 24 Nordeste 0 901 -0.8 69
2018-10-20 16:00:00 16.7 4 Nordeste 27 Este 0 901.3 -0.8 72
2018-10-20 15:00:00 16 10 Este 28 Nordeste 0 901.6 -0.5 73
2018-10-20 14:00:00 15.9 7 Nordeste 26 Este 0 901.8 0.4 81
2018-10-20 13:00:00 14.2 8 Este 23 Este 0 902.1 1 85
2018-10-20 12:00:00 13.5 6 Nordeste 29 Este 0 902.1 1.4 88
2018-10-20 11:00:00 13.3 7 Nordeste 22 Este 0 901.4 1.4 89
2018-10-20 10:00:00 12 3 Nordeste 10 Este 0 901.1 1.4 99
2018-10-20 09:00:00 9.3 0 Calma 7 Este 0 900.7 1.4 98
2018-10-20 08:00:00 9.3 0 Calma 11 Sudeste 0 900 1.2 97
2018-10-20 07:00:00 9.5 4 Este 10 Este 0 899.7 0.9 98
2018-10-20 06:00:00 10 3 Noroeste 10 Nordeste 0 899.3 0.7 95
2018-10-20 05:00:00 11.3 4 Este 14 Sudeste 0 898.8 0.3 94
2018-10-20 04:00:00 11.7 6 Este 16 Nordeste 0 898.8 0.4 95
2018-10-20 03:00:00 11.8 6 Este 15 Este 0 898.6 0.3 97
2018-10-20 02:00:00 11.6 2 Nordeste 12 Este 0.2 898.5 0.4 97
2018-10-20 01:00:00 11.6 3 Nordeste 10 Este 0 898.4 1 97
2018-10-20 00:00:00 11.4 0 Calma 5 Sudeste 0.2 898.3 1.4 97
2018-10-19 23:00:00 11.5 2 Este 11 Nordeste 1.6 898.1 1 97
2018-10-19 22:00:00 11.5 3 Nordeste 12 Este 2.4 897.4 1.1 97
2018-10-19 21:00:00 11.4 4 Noroeste 8 Noroeste 3.8 896.9 1 97
2018-10-19 20:00:00 11.4 0 Calma 10 Este 2 897.1 1.4 96
2018-10-19 19:00:00 11.7 4 Norte 11 Norte 2.2 896.3 1.1 95
2018-10-19 18:00:00 12.1 3 Nordeste 8 Norte 1.6 895.9 1 94
2018-10-19 17:00:00 12.4 2 Nordeste 19 Sudeste 1.4 895.7 0.5 93
2018-10-19 16:00:00 12.7 5 Este 28 Este 8.6 895.2 -0.3 93
2018-10-19 15:00:00 13.2 5 Nordeste 20 Norte 1 894.9 -0.4 96
2018-10-19 14:00:00 13 5 Nordeste 24 Nordeste 0.6 895.2 0.4 95
2018-10-19 13:00:00 12.7 6 Norte 18 Norte 0.4 895.5 0.8 96
2018-10-19 12:00:00 12.7 5 Nordeste 25 Este 0.4 895.3 1.5 96
2018-10-19 11:00:00 12.2 5 Norte 19 Nordeste 0.4 894.8 1.5 98
2018-10-19 10:00:00 11.8 4 Nordeste 15 Este 1.2 894.7 1.4 97
2018-10-19 09:00:00 11.5 3 Nordeste 14 Este 0.8 893.8 0.7 97
2018-10-19 08:00:00 10.9 2 Nordeste 7 Nordeste 1 893.3 -0.1 98
2018-10-19 07:00:00 10.4 3 Este 9 Norte 1 893.3 -0.5 96
2018-10-19 06:00:00 10.3 3 Norte 10 Norte 1.6 893.1 -0.9 96
2018-10-19 05:00:00 10.4 4 Este 13 Este 0.6 893.4 -0.2 95
2018-10-19 04:00:00 10.7 3 Nordeste 9 Norte 1 893.8 0.4 97
2018-10-19 03:00:00 10.7 2 Nordeste 13 Este 2.4 894 0.7 96
2018-10-19 02:00:00 10.9 3 Nordeste 12 Este 4.6 893.6 0.6 96
2018-10-19 01:00:00 11.1 3 Nordeste 31 Este 8.6 893.4 0.9 93
2018-10-19 00:00:00 12.2 3 Nordeste 29 Nordeste 2.6 893.3 0.5 96
2018-10-18 23:00:00 12 5 Nordeste 27 Norte 0.2 893 0.3 96
2018-10-18 22:00:00 11.6 9 Norte 24 Norte 0.6 892.5 0.3 95
2018-10-18 21:00:00 11.8 7 Norte 23 Norte 1.4 892.8 1.1 95
2018-10-18 20:00:00 11.8 5 Norte 19 Nordeste 2.8 892.7 0.6 94
2018-10-18 19:00:00 12.5 3 Nordeste 18 Norte 1.2 892.2 -0.2 90
2018-10-18 18:00:00 13.2 5 Nordeste 22 Nordeste 0 891.7 -0.9 84
2018-10-18 17:00:00 13.2 4 Nordeste 17 Norte 0 892.1 -1 86
2018-10-18 16:00:00 13.6 4 Norte 25 Norte 0 892.4 -0.9 84
2018-10-18 15:00:00 14.1 4 Nordeste 17 Nordeste 0 892.6 -0.7 77
2018-10-18 14:00:00 14.1 6 Nordeste 21 Este 0 893.1 -0.2 75
2018-10-18 13:00:00 13.4 4 Nordeste 18 Norte 0 893.3 0 83
2018-10-18 12:00:00 13.2 5 Nordeste 19 Nordeste 0 893.3 0.3 84
2018-10-18 11:00:00 10.8 3 Nordeste 20 Este 0 893.3 0.4 93
2018-10-18 10:00:00 8.2 0 Calma 6 Este 0 893.3 0.3 95
2018-10-18 09:00:00 6.5 0 Calma 7 Sudeste 0 893 0.3 94
2018-10-18 08:00:00 7.2 3 Este 7 Este 0 892.9 -0.1 93
2018-10-18 07:00:00 8.5 2 Sur 4 Sur 0 893 -0.3 92
2018-10-18 06:00:00 9.9 0 Calma 7 Este 0 892.7 -1.2 91
2018-10-18 05:00:00 10.6 2 Sudeste 9 Este 0 893 -1.6 91
2018-10-18 04:00:00 10.9 2 Sudeste 9 Noroeste 0 893.3 -1.2 90
2018-10-18 03:00:00 11.5 5 Norte 13 Norte 0.8 893.9 -1 85
2018-10-18 02:00:00 12.4 2 Nordeste 7 Este 0 894.6 -0.3 74
2018-10-18 01:00:00 12.9 3 Noroeste 8 Oeste 0 894.5 -0.1 73
2018-10-18 00:00:00 13.2 4 Oeste 14 Oeste 0 894.9 0.3 71